Time;durP1;ratioP1;P1;durP2;ratioP2;P2;SDS_P1;SDS_P2;PMS_P1;PMS_P2;Temp;Humidity;BMP_temperature;BMP_pressure;BME280_temperature;BME280_humidity;BME280_pressure;Samples;Min_cycle;Max_cycle;Signal;HPM_P1;HPM_P2
2023/01/18 00:00:36;;;;;;;66.07;6.75;;;;;;;-148.24;100.00;61531.34;4989936;28;20046;-55
2023/01/18 00:03:03;;;;;;;56.70;6.18;;;;;;;-148.24;100.00;61531.34;4991199;28;20064;-55
2023/01/18 00:05:29;;;;;;;71.65;7.05;;;;;;;-148.24;100.00;61531.34;4992771;28;20495;-54
2023/01/18 00:07:54;;;;;;;67.60;6.80;;;;;;;-148.24;100.00;61531.34;4992949;28;20062;-53
2023/01/18 00:10:21;;;;;;;53.08;6.40;;;;;;;-148.24;100.00;61531.34;4992571;28;20180;-53
2023/01/18 00:12:47;;;;;;;61.88;6.70;;;;;;;-148.24;100.00;61531.34;4994054;28;20076;-55
2023/01/18 00:15:12;;;;;;;60.50;6.78;;;;;;;-148.24;100.00;61531.34;4993199;28;20752;-53
2023/01/18 00:17:46;;;;;;;70.35;6.88;;;;;;;-148.24;100.00;61531.34;4994299;28;20072;-55
2023/01/18 00:20:14;;;;;;;53.65;5.70;;;;;;;-148.24;100.00;61531.34;4994799;28;20034;-53
2023/01/18 00:22:40;;;;;;;85.20;7.65;;;;;;;-148.24;100.00;61531.34;4993656;28;20065;-53
2023/01/18 00:25:05;;;;;;;65.38;6.70;;;;;;;-148.24;100.00;61531.34;4993347;28;20100;-53
2023/01/18 00:27:31;;;;;;;53.03;6.35;;;;;;;-148.24;100.00;61531.34;4995447;28;20696;-52
2023/01/18 00:29:58;;;;;;;76.03;7.43;;;;;;;-148.24;100.00;61531.34;4996690;28;20025;-53
2023/01/18 00:32:24;;;;;;;62.88;6.00;;;;;;;-148.24;100.00;61531.34;4992253;28;20045;-52
2023/01/18 00:34:49;;;;;;;78.70;7.85;;;;;;;-148.24;100.00;61531.34;4994207;28;20029;-55
2023/01/18 00:37:15;;;;;;;66.38;6.88;;;;;;;-148.24;100.00;61531.34;4994453;28;20030;-52
2023/01/18 00:39:40;;;;;;;86.93;7.30;;;;;;;-148.24;100.00;61531.34;4993725;28;20034;-53
2023/01/18 00:44:49;;;;;;;88.63;7.00;;;;;;;-148.24;100.00;61531.34;4993328;28;20060;-54
2023/01/18 00:47:15;;;;;;;57.78;6.25;;;;;;;-148.24;100.00;61531.34;4994297;28;20701;-54
2023/01/18 00:49:41;;;;;;;81.65;7.80;;;;;;;-148.24;100.00;61531.34;4996004;28;20576;-54
2023/01/18 00:52:06;;;;;;;73.55;7.05;;;;;;;-148.24;100.00;61531.34;4992946;28;20049;-53
2023/01/18 00:54:31;;;;;;;54.22;5.93;;;;;;;-148.24;100.00;61531.34;4994535;28;20050;-52
2023/01/18 00:56:57;;;;;;;77.70;7.32;;;;;;;-148.24;100.00;61531.34;4993181;28;20070;-53
2023/01/18 00:59:22;;;;;;;64.45;6.65;;;;;;;-148.24;100.00;61531.34;4995305;28;20771;-54
2023/01/18 01:01:48;;;;;;;66.32;7.15;;;;;;;-148.24;100.00;61531.34;4993223;28;20061;-53
2023/01/18 01:06:57;;;;;;;48.97;5.93;;;;;;;-148.24;100.00;61531.34;4993346;28;20084;-54
2023/01/18 01:09:28;;;;;;;52.55;5.97;;;;;;;-148.24;100.00;61531.34;4995534;28;20026;-53
2023/01/18 01:26:07;;;;;;;64.18;6.78;;;;;;;-148.24;100.00;61531.34;4993815;28;20037;-52
2023/01/18 01:28:38;;;;;;;70.45;7.13;;;;;;;-148.24;100.00;61531.34;4995103;28;20021;-53
2023/01/18 01:31:05;;;;;;;55.22;6.38;;;;;;;-148.24;100.00;61531.34;4993381;28;20562;-55
2023/01/18 01:33:32;;;;;;;73.03;7.07;;;;;;;-148.24;100.00;61531.34;4995814;28;20038;-54
2023/01/18 01:36:00;;;;;;;56.80;5.60;;;;;;;-148.24;100.00;61531.34;4994297;28;20056;-54
2023/01/18 01:38:26;;;;;;;67.30;6.55;;;;;;;-148.24;100.00;61531.34;4992516;28;20018;-53
2023/01/18 01:41:04;;;;;;;60.65;6.35;;;;;;;-148.24;100.00;61531.34;4994254;28;20042;-55
2023/01/18 01:43:47;;;;;;;65.88;5.72;;;;;;;-148.24;100.00;61531.34;4993187;28;20018;-55
2023/01/18 01:46:40;;;;;;;59.95;6.43;;;;;;;-148.24;100.00;61531.34;4994135;28;20041;-53
2023/01/18 01:49:09;;;;;;;65.72;6.63;;;;;;;-148.24;100.00;61531.34;4991665;28;20026;-53
2023/01/18 01:51:40;;;;;;;65.68;6.15;;;;;;;-148.24;100.00;61531.34;4993024;28;20073;-54
2023/01/18 01:54:12;;;;;;;68.78;6.63;;;;;;;-148.24;100.00;61531.34;4990944;28;20595;-55
2023/01/18 01:56:38;;;;;;;77.40;7.18;;;;;;;-148.24;100.00;61531.34;4991852;28;20713;-54
2023/01/18 01:59:05;;;;;;;60.17;6.22;;;;;;;-148.24;100.00;61531.34;4994949;28;20041;-53
2023/01/18 02:01:31;;;;;;;58.33;6.78;;;;;;;-148.24;100.00;61531.34;4976394;28;20122;-53
2023/01/18 02:03:59;;;;;;;59.83;6.35;;;;;;;-148.24;100.00;61531.34;4991469;28;20019;-53
2023/01/18 02:06:30;;;;;;;61.97;6.18;;;;;;;-148.24;100.00;61531.34;4991229;28;20038;-55
2023/01/18 02:09:22;;;;;;;63.55;6.50;;;;;;;-148.24;100.00;61531.34;4993358;28;20022;-55
2023/01/18 02:11:52;;;;;;;69.82;6.53;;;;;;;-148.24;100.00;61531.34;4986996;28;20037;-52
2023/01/18 02:14:22;;;;;;;62.45;5.97;;;;;;;-148.24;100.00;61531.34;4992184;28;20398;-52
2023/01/18 02:17:06;;;;;;;66.75;6.60;;;;;;;-148.24;100.00;61531.34;4992311;28;20121;-52
2023/01/18 02:19:55;;;;;;;54.00;5.50;;;;;;;-148.24;100.00;61531.34;4991812;28;20038;-53
2023/01/18 02:22:33;;;;;;;59.35;6.15;;;;;;;-148.24;100.00;61531.34;4992035;28;20050;-52
2023/01/18 02:25:07;;;;;;;73.78;7.13;;;;;;;-148.24;100.00;61531.34;4993950;28;20060;-52
2023/01/18 02:27:42;;;;;;;61.95;5.95;;;;;;;-148.24;100.00;61531.34;4990785;28;20038;-52
2023/01/18 02:30:15;;;;;;;64.28;5.50;;;;;;;-148.24;100.00;61531.34;4991414;28;20027;-53
2023/01/18 02:33:11;;;;;;;51.15;5.13;;;;;;;-148.24;100.00;61531.34;4992248;28;20018;-52
2023/01/18 02:35:55;;;;;;;60.65;6.13;;;;;;;-148.24;100.00;61531.34;4993924;28;20041;-55
2023/01/18 02:38:40;;;;;;;75.90;7.07;;;;;;;-148.24;100.00;61531.34;4991301;28;20027;-54
2023/01/18 02:41:20;;;;;;;55.65;6.05;;;;;;;-148.24;100.00;61531.34;4991880;28;20046;-53
2023/01/18 02:46:34;;;;;;;57.72;6.22;;;;;;;-148.24;100.00;61531.34;4990116;28;20096;-53
2023/01/18 02:49:11;;;;;;;57.90;6.32;;;;;;;-148.24;100.00;61531.34;4993231;28;20041;-54
2023/01/18 02:51:37;;;;;;;52.20;6.07;;;;;;;-148.24;100.00;61531.34;4989556;28;20034;-53
2023/01/18 02:54:08;;;;;;;47.75;5.53;;;;;;;-148.24;100.00;61531.34;4990607;28;20125;-55
2023/01/18 02:56:34;;;;;;;76.50;7.07;;;;;;;-148.24;100.00;61531.34;4992432;28;20030;-53
2023/01/18 02:59:21;;;;;;;54.15;6.00;;;;;;;-148.24;100.00;61531.34;4992003;28;20022;-56
2023/01/18 03:01:51;;;;;;;56.30;6.70;;;;;;;-148.24;100.00;61531.34;4993152;28;20052;-55
2023/01/18 03:04:37;;;;;;;58.63;6.38;;;;;;;-148.24;100.00;61531.34;4992126;28;20093;-53
2023/01/18 03:07:12;;;;;;;60.13;6.18;;;;;;;-148.24;100.00;61531.34;4989907;28;20050;-53
2023/01/18 03:09:40;;;;;;;98.07;8.90;;;;;;;-148.24;100.00;61531.34;4993908;28;20427;-53
2023/01/18 03:12:22;;;;;;;58.58;6.28;;;;;;;-148.24;100.00;61531.34;4993843;28;20038;-53
2023/01/18 03:15:00;;;;;;;71.72;7.28;;;;;;;-148.24;100.00;61531.34;4993437;28;20081;-53
2023/01/18 03:17:38;;;;;;;59.72;6.10;;;;;;;-148.24;100.00;61531.34;4989754;28;20119;-53
2023/01/18 03:20:08;;;;;;;60.08;6.25;;;;;;;-148.24;100.00;61531.34;4990804;28;20030;-53
2023/01/18 03:25:24;;;;;;;66.93;6.18;;;;;;;-148.24;100.00;61531.34;4991683;28;20088;-53
2023/01/18 03:33:46;;;;;;;60.88;6.28;;;;;;;-148.24;100.00;61531.34;4990378;28;20511;-53
2023/01/18 03:36:25;;;;;;;56.28;6.43;;;;;;;-148.24;100.00;61531.34;4991038;28;20046;-55
2023/01/18 03:39:00;;;;;;;70.07;6.78;;;;;;;-148.24;100.00;61531.34;4991622;28;20034;-53
2023/01/18 03:41:29;;;;;;;62.88;6.30;;;;;;;-148.24;100.00;61531.34;4990374;28;21142;-53
2023/01/18 03:43:59;;;;;;;65.47;6.80;;;;;;;-148.24;100.00;61531.34;4993086;28;20049;-53
2023/01/18 03:46:28;;;;;;;56.22;5.40;;;;;;;-148.24;100.00;61531.34;4998016;28;20116;-53
2023/01/18 03:48:54;;;;;;;61.15;6.72;;;;;;;-148.24;100.00;61531.34;4998960;28;20030;-53
2023/01/18 03:51:28;;;;;;;66.57;6.90;;;;;;;-148.24;100.00;61531.34;4998509;28;20093;-53
2023/01/18 03:54:04;;;;;;;60.72;6.13;;;;;;;-148.24;100.00;61531.34;4998403;28;20034;-55
2023/01/18 03:56:45;;;;;;;54.25;5.72;;;;;;;-148.24;100.00;61531.34;4995602;28;20751;-53
2023/01/18 03:59:12;;;;;;;85.37;8.00;;;;;;;-148.24;100.00;61531.34;4992055;28;20036;-53
2023/01/18 04:01:38;;;;;;;66.40;6.40;;;;;;;-148.24;100.00;61531.34;4996842;28;20299;-52
2023/01/18 04:04:03;;;;;;;61.67;6.55;;;;;;;-148.24;100.00;61531.34;4997070;28;20041;-53
2023/01/18 04:06:31;;;;;;;63.03;6.38;;;;;;;-148.24;100.00;61531.34;4998550;28;20046;-54
2023/01/18 04:08:57;;;;;;;117.10;9.40;;;;;;;-148.24;100.00;61531.34;4997208;28;20049;-53
2023/01/18 04:11:22;;;;;;;90.95;7.90;;;;;;;-148.24;100.00;61531.34;4994044;28;20153;-54
2023/01/18 04:13:48;;;;;;;73.20;7.00;;;;;;;-148.24;100.00;61531.34;4995972;28;20466;-57
2023/01/18 04:16:13;;;;;;;68.63;6.93;;;;;;;-148.24;100.00;61531.34;4998668;28;20046;-55
2023/01/18 04:18:38;;;;;;;51.60;5.85;;;;;;;-148.24;100.00;61531.34;4995362;28;20021;-53
2023/01/18 04:21:04;;;;;;;59.05;6.22;;;;;;;-148.24;100.00;61531.34;4997962;28;20061;-54
2023/01/18 04:23:29;;;;;;;75.85;7.05;;;;;;;-148.24;100.00;61531.34;4998302;28;20034;-55
2023/01/18 04:25:55;;;;;;;62.30;6.80;;;;;;;-148.24;100.00;61531.34;4999066;28;20037;-55
2023/01/18 04:28:24;;;;;;;54.38;6.50;;;;;;;-148.24;100.00;61531.34;4999081;28;20697;-56
2023/01/18 04:30:54;;;;;;;54.53;6.65;;;;;;;-148.24;100.00;61531.34;4997924;28;20119;-55
2023/01/18 04:33:20;;;;;;;65.85;7.03;;;;;;;-148.24;100.00;61531.34;4995547;28;20022;-56
2023/01/18 04:35:47;;;;;;;63.60;7.30;;;;;;;-148.24;100.00;61531.34;4994996;28;20502;-55
2023/01/18 04:38:12;;;;;;;53.60;5.38;;;;;;;-148.24;100.00;61531.34;4998399;28;20026;-54
2023/01/18 04:40:38;;;;;;;65.53;7.72;;;;;;;-148.24;100.00;61531.34;4995687;28;20038;-55
2023/01/18 04:43:03;;;;;;;64.15;7.03;;;;;;;-148.24;100.00;61531.34;4998556;28;20022;-57
2023/01/18 04:45:28;;;;;;;63.40;8.15;;;;;;;-148.24;100.00;61531.34;4997661;28;20041;-56
2023/01/18 04:47:54;;;;;;;65.95;8.20;;;;;;;-148.24;100.00;61531.34;4998205;28;20686;-54
2023/01/18 04:50:19;;;;;;;57.80;7.60;;;;;;;-148.24;100.00;61531.34;4993828;28;20109;-54
2023/01/18 04:52:44;;;;;;;81.93;8.30;;;;;;;-148.24;100.00;61531.34;4998064;28;20051;-54
2023/01/18 04:55:14;;;;;;;53.25;6.55;;;;;;;-148.24;100.00;61531.34;4994876;28;20550;-56
2023/01/18 04:57:39;;;;;;;66.13;9.30;;;;;;;-148.24;100.00;61531.34;4993920;28;20038;-53
2023/01/18 05:00:06;;;;;;;63.85;7.45;;;;;;;-148.24;100.00;61531.34;4992191;28;20030;-54
2023/01/18 05:02:31;;;;;;;74.40;8.95;;;;;;;-148.24;100.00;61531.34;4992149;28;20129;-54
2023/01/18 05:04:58;;;;;;;93.05;10.70;;;;;;;-148.24;100.00;61531.34;4992646;28;20055;-55
2023/01/18 05:07:24;;;;;;;69.85;10.05;;;;;;;-148.24;100.00;61531.34;4991089;28;20524;-53
2023/01/18 05:09:49;;;;;;;86.18;10.63;;;;;;;-148.24;100.00;61531.34;4993341;28;20046;-54
2023/01/18 05:12:16;;;;;;;63.67;9.90;;;;;;;-148.24;100.00;61531.34;4991908;28;20599;-53
2023/01/18 05:14:42;;;;;;;69.15;9.70;;;;;;;-148.24;100.00;61531.34;4993507;28;20133;-55
2023/01/18 05:17:07;;;;;;;84.30;10.90;;;;;;;-148.24;100.00;61531.34;4992236;28;20042;-53
2023/01/18 05:19:32;;;;;;;74.03;10.40;;;;;;;-148.24;100.00;61531.34;4992642;28;20030;-54
2023/01/18 05:21:58;;;;;;;55.05;8.27;;;;;;;-148.24;100.00;61531.34;4992429;28;20042;-54
2023/01/18 05:24:23;;;;;;;150.80;15.75;;;;;;;-148.24;100.00;61531.34;4993068;28;20037;-54
2023/01/18 05:26:49;;;;;;;66.72;9.65;;;;;;;-148.24;100.00;61531.34;4991279;28;20033;-54
2023/01/18 05:29:14;;;;;;;73.72;8.30;;;;;;;-148.24;100.00;61531.34;4993335;28;20441;-53
2023/01/18 05:31:40;;;;;;;74.40;9.77;;;;;;;-148.24;100.00;61531.34;4991825;28;20468;-55
2023/01/18 05:34:05;;;;;;;70.82;9.82;;;;;;;-148.24;100.00;61531.34;4990106;28;20058;-53
2023/01/18 05:36:31;;;;;;;76.53;9.20;;;;;;;-148.24;100.00;61531.34;4993659;28;20701;-53
2023/01/18 05:38:56;;;;;;;57.70;10.52;;;;;;;-148.24;100.00;61531.34;4992397;28;20084;-56
2023/01/18 05:41:22;;;;;;;82.05;11.57;;;;;;;-148.24;100.00;61531.34;4992805;28;20038;-54
2023/01/18 05:43:47;;;;;;;63.53;6.03;;;;;;;-148.24;100.00;61531.34;4993096;28;20104;-55
2023/01/18 05:46:12;;;;;;;71.03;11.10;;;;;;;-148.24;100.00;61531.34;4991367;28;20042;-56
2023/01/18 05:48:38;;;;;;;74.28;9.70;;;;;;;-148.24;100.00;61531.34;4993237;28;20498;-56
2023/01/18 05:51:09;;;;;;;65.30;10.45;;;;;;;-148.24;100.00;61531.34;4993404;28;20042;-53
2023/01/18 05:53:34;;;;;;;93.78;12.30;;;;;;;-148.24;100.00;61531.34;4992468;28;20491;-54
2023/01/18 05:56:04;;;;;;;55.25;5.97;;;;;;;-148.24;100.00;61531.34;4992088;28;20034;-54
2023/01/18 05:58:30;;;;;;;78.10;10.75;;;;;;;-148.24;100.00;61531.34;4994549;28;20125;-54
2023/01/18 06:00:55;;;;;;;61.85;8.30;;;;;;;-148.24;100.00;61531.34;4992110;28;20399;-56
2023/01/18 06:03:22;;;;;;;68.20;8.52;;;;;;;-148.24;100.00;61531.34;4976354;28;20026;-53
2023/01/18 06:05:50;;;;;;;74.38;10.73;;;;;;;-148.24;100.00;61531.34;4991953;28;20029;-52
2023/01/18 06:08:15;;;;;;;62.67;8.32;;;;;;;-148.24;100.00;61531.34;4994868;28;20091;-53
2023/01/18 06:10:41;;;;;;;83.90;9.85;;;;;;;-148.24;100.00;61531.34;4991483;28;20038;-55
2023/01/18 06:13:06;;;;;;;68.75;9.27;;;;;;;-148.24;100.00;61531.34;4976110;28;20040;-55
2023/01/18 06:15:32;;;;;;;57.10;7.18;;;;;;;-148.24;100.00;61531.34;4993286;28;20048;-56
2023/01/18 06:17:58;;;;;;;75.30;10.52;;;;;;;-148.24;100.00;61531.34;4996566;28;20018;-55
2023/01/18 06:20:24;;;;;;;58.70;9.23;;;;;;;-148.24;100.00;61531.34;4991466;28;20117;-53
2023/01/18 06:22:49;;;;;;;94.05;10.43;;;;;;;-148.24;100.00;61531.34;4992430;28;20025;-53
2023/01/18 06:25:15;;;;;;;72.10;11.20;;;;;;;-148.24;100.00;61531.34;4972454;28;20018;-53
2023/01/18 06:27:40;;;;;;;64.20;9.88;;;;;;;-148.24;100.00;61531.34;4991587;28;20572;-52
2023/01/18 06:30:07;;;;;;;68.85;11.50;;;;;;;-148.24;100.00;61531.34;4991111;28;20026;-56
2023/01/18 06:32:33;;;;;;;74.07;11.70;;;;;;;-148.24;100.00;61531.34;4991907;28;20377;-53
2023/01/18 06:34:58;;;;;;;84.25;10.75;;;;;;;-148.24;100.00;61531.34;4992409;28;20471;-56
2023/01/18 06:37:24;;;;;;;76.97;12.23;;;;;;;-148.24;100.00;61531.34;4991737;28;20034;-52
2023/01/18 06:39:50;;;;;;;103.53;13.95;;;;;;;-148.24;100.00;61531.34;4988932;28;20104;-53
2023/01/18 06:42:15;;;;;;;67.20;9.48;;;;;;;-148.24;100.00;61531.34;4990661;28;20038;-55
2023/01/18 06:44:40;;;;;;;67.50;9.57;;;;;;;-148.24;100.00;61531.34;4993896;28;20186;-53
2023/01/18 06:47:06;;;;;;;87.68;11.98;;;;;;;-148.24;100.00;61531.34;4990449;28;20046;-52
2023/01/18 06:49:31;;;;;;;70.25;11.23;;;;;;;-148.24;100.00;61531.34;4990897;28;20022;-53
2023/01/18 06:51:57;;;;;;;65.35;13.18;;;;;;;-148.24;100.00;61531.34;4990380;28;20026;-52
2023/01/18 06:54:22;;;;;;;92.50;15.05;;;;;;;-148.24;100.00;61531.34;4992660;28;20040;-56
2023/01/18 06:56:47;;;;;;;79.57;13.35;;;;;;;-148.24;100.00;61531.34;4990507;28;20053;-53
2023/01/18 06:59:13;;;;;;;83.68;12.95;;;;;;;-148.24;100.00;61531.34;4992387;28;20025;-55
2023/01/18 07:01:38;;;;;;;81.07;12.73;;;;;;;-148.24;100.00;61531.34;4988866;28;20033;-53
2023/01/18 07:04:05;;;;;;;69.47;13.07;;;;;;;-148.24;100.00;61531.34;4991301;28;20070;-57
2023/01/18 07:06:31;;;;;;;80.63;12.18;;;;;;;-148.24;100.00;61531.34;4989511;28;20038;-57
2023/01/18 07:08:56;;;;;;;76.28;11.93;;;;;;;-148.24;100.00;61531.34;4991322;28;20438;-53
2023/01/18 07:11:22;;;;;;;89.88;12.68;;;;;;;-148.24;100.00;61531.34;4990553;28;20451;-55
2023/01/18 07:13:48;;;;;;;76.18;12.80;;;;;;;-148.24;100.00;61531.34;4992847;28;20021;-56
2023/01/18 07:16:16;;;;;;;69.00;12.00;;;;;;;-148.24;100.00;61531.34;4992024;28;20212;-53
2023/01/18 07:18:45;;;;;;;99.07;12.25;;;;;;;-148.24;100.00;61531.34;4989136;28;20534;-55
2023/01/18 07:21:12;;;;;;;68.32;9.98;;;;;;;-148.24;100.00;61531.34;4991948;28;20081;-53
2023/01/18 07:23:39;;;;;;;79.97;12.18;;;;;;;-148.24;100.00;61531.34;4991798;28;20060;-55
2023/01/18 07:26:08;;;;;;;69.95;12.32;;;;;;;-148.24;100.00;61531.34;4991040;28;20042;-54
2023/01/18 07:28:34;;;;;;;92.28;12.45;;;;;;;-148.24;100.00;61531.34;4991516;28;20029;-54
2023/01/18 07:31:00;;;;;;;76.10;12.50;;;;;;;-148.24;100.00;61531.34;4992172;28;20038;-54
2023/01/18 07:33:26;;;;;;;64.07;11.25;;;;;;;-148.24;100.00;61531.34;4992282;28;20083;-55
2023/01/18 07:35:53;;;;;;;69.97;11.50;;;;;;;-148.24;100.00;61531.34;4992236;28;20381;-55
2023/01/18 07:38:20;;;;;;;71.70;11.50;;;;;;;-148.24;100.00;61531.34;4992683;28;20036;-53
2023/01/18 07:40:46;;;;;;;78.63;11.80;;;;;;;-148.24;100.00;61531.34;4990978;28;20041;-53
2023/01/18 07:43:12;;;;;;;74.78;12.00;;;;;;;-148.24;100.00;61531.34;4991031;28;20101;-54
2023/01/18 07:45:37;;;;;;;77.13;11.25;;;;;;;-148.24;100.00;61531.34;4988896;28;20042;-53
2023/01/18 07:48:04;;;;;;;65.70;10.88;;;;;;;-148.24;100.00;61531.34;4990309;28;20487;-53
2023/01/18 07:50:29;;;;;;;61.72;10.82;;;;;;;-148.24;100.00;61531.34;4990910;28;20563;-53
2023/01/18 07:52:55;;;;;;;82.40;12.57;;;;;;;-148.24;100.00;61531.34;4991785;28;20037;-53
2023/01/18 07:55:21;;;;;;;76.20;12.32;;;;;;;-148.24;100.00;61531.34;4992059;28;20031;-55
2023/01/18 07:57:46;;;;;;;65.63;11.98;;;;;;;-148.24;100.00;61531.34;4991559;28;20503;-54
2023/01/18 08:00:13;;;;;;;68.22;11.43;;;;;;;-148.24;100.00;61531.34;4989362;28;20038;-56
2023/01/18 08:02:39;;;;;;;64.80;11.52;;;;;;;-148.24;100.00;61531.34;4988716;28;20030;-54
2023/01/18 08:05:05;;;;;;;89.82;13.18;;;;;;;-148.24;100.00;61531.34;4989590;28;20598;-53
2023/01/18 08:07:35;;;;;;;72.03;12.48;;;;;;;-148.24;100.00;61531.34;4989927;28;20423;-53
2023/01/18 08:10:01;;;;;;;91.57;12.43;;;;;;;-148.24;100.00;61531.34;4989411;28;20022;-56
2023/01/18 08:12:26;;;;;;;74.43;11.93;;;;;;;-148.24;100.00;61531.34;4991636;28;20456;-54
2023/01/18 08:14:51;;;;;;;60.17;8.15;;;;;;;-148.24;100.00;61531.34;4992108;28;20104;-56
2023/01/18 08:17:17;;;;;;;61.53;9.30;;;;;;;-148.24;100.00;61531.34;4989946;28;20069;-53
2023/01/18 08:19:42;;;;;;;80.22;9.35;;;;;;;-148.24;100.00;61531.34;4991689;28;20026;-52
2023/01/18 08:22:08;;;;;;;68.57;10.70;;;;;;;-148.24;100.00;61531.34;4989626;28;20133;-52
2023/01/18 08:24:33;;;;;;;63.55;9.93;;;;;;;-148.24;100.00;61531.34;4991498;28;20049;-52
2023/01/18 08:26:58;;;;;;;63.08;6.70;;;;;;;-148.24;100.00;61531.34;4990969;28;20038;-53
2023/01/18 08:29:24;;;;;;;73.80;10.80;;;;;;;-148.24;100.00;61531.34;4991278;28;20889;-53
2023/01/18 08:31:53;;;;;;;66.70;10.15;;;;;;;-148.24;100.00;61531.34;4993593;28;20487;-53
2023/01/18 08:34:19;;;;;;;80.40;11.40;;;;;;;-148.24;100.00;61531.34;4996782;28;20105;-56
2023/01/18 08:36:44;;;;;;;61.97;10.45;;;;;;;-148.24;100.00;61531.34;4994262;28;20092;-55
2023/01/18 08:39:12;;;;;;;72.28;11.68;;;;;;;-148.24;100.00;61531.34;4993196;28;20073;-57
2023/01/18 08:41:37;;;;;;;67.68;10.65;;;;;;;-148.24;100.00;61531.34;4994660;28;20100;-57
2023/01/18 08:44:03;;;;;;;70.50;9.85;;;;;;;-148.24;100.00;61531.34;4995129;28;20025;-55
2023/01/18 08:46:29;;;;;;;83.38;11.30;;;;;;;-148.24;100.00;61531.34;4991752;28;20039;-56
2023/01/18 08:48:56;;;;;;;71.22;10.38;;;;;;;-148.24;100.00;61531.34;4994998;28;20033;-56
2023/01/18 08:51:24;;;;;;;71.15;10.50;;;;;;;-148.24;100.00;61531.34;4993349;28;20113;-54
2023/01/18 08:53:56;;;;;;;74.35;12.32;;;;;;;-148.24;100.00;61531.34;4994309;28;20026;-55
2023/01/18 08:56:21;;;;;;;75.00;11.03;;;;;;;-148.24;100.00;61531.34;4994201;28;20033;-53
2023/01/18 08:58:46;;;;;;;81.28;11.77;;;;;;;-148.24;100.00;61531.34;4995390;28;20080;-54
2023/01/18 09:01:12;;;;;;;74.00;13.25;;;;;;;-148.24;100.00;61531.34;4994348;28;20223;-53
2023/01/18 09:03:37;;;;;;;91.30;11.25;;;;;;;-148.24;100.00;61531.34;4995618;28;20036;-54
2023/01/18 09:06:06;;;;;;;80.55;13.35;;;;;;;-148.24;100.00;61531.34;4995107;28;20040;-53
2023/01/18 09:08:32;;;;;;;70.45;10.40;;;;;;;-148.24;100.00;61531.34;4993970;28;20030;-54
2023/01/18 09:11:07;;;;;;;76.15;13.05;;;;;;;-148.24;100.00;61531.34;4994682;28;20068;-53
2023/01/18 09:13:32;;;;;;;74.55;12.18;;;;;;;-148.24;100.00;61531.34;4996169;28;20022;-54
2023/01/18 09:16:03;;;;;;;80.60;13.02;;;;;;;-148.24;100.00;61531.34;4993405;28;20092;-54
2023/01/18 09:18:29;;;;;;;65.43;10.40;;;;;;;-148.24;100.00;61531.34;4993536;28;20022;-55
2023/01/18 09:20:55;;;;;;;80.75;12.57;;;;;;;-148.24;100.00;61531.34;4992936;28;20042;-54
2023/01/18 09:23:21;;;;;;;79.63;12.85;;;;;;;-148.24;100.00;61531.34;4993958;28;20069;-53
2023/01/18 09:25:47;;;;;;;94.32;12.75;;;;;;;-148.24;100.00;61531.34;4974597;28;20427;-53
2023/01/18 09:28:15;;;;;;;80.38;13.75;;;;;;;-148.24;100.00;61531.34;4992185;28;20037;-55
2023/01/18 09:30:41;;;;;;;84.57;12.73;;;;;;;-148.24;100.00;61531.34;4992985;28;20048;-55
2023/01/18 09:33:06;;;;;;;90.78;13.05;;;;;;;-148.24;100.00;61531.34;4992406;28;20993;-55
2023/01/18 09:35:32;;;;;;;92.90;11.02;;;;;;;-148.24;100.00;61531.34;4992426;28;20038;-53
2023/01/18 09:37:57;;;;;;;85.00;12.50;;;;;;;-148.24;100.00;61531.34;4993086;28;20034;-54
2023/01/18 09:40:37;;;;;;;69.35;11.65;;;;;;;-148.24;100.00;61531.34;4992630;28;20081;-54
2023/01/18 09:43:02;;;;;;;101.28;12.77;;;;;;;-148.24;100.00;61531.34;4992379;28;20018;-54
2023/01/18 09:45:33;;;;;;;85.45;13.23;;;;;;;-148.24;100.00;61531.34;4995426;28;20068;-53
2023/01/18 09:48:27;;;;;;;75.25;10.52;;;;;;;-148.24;100.00;61531.34;4992993;28;20041;-54
2023/01/18 09:50:53;;;;;;;66.07;10.82;;;;;;;-148.24;100.00;61531.34;4977185;28;20034;-56
2023/01/18 09:53:21;;;;;;;78.63;10.23;;;;;;;-148.24;100.00;61531.34;4994371;28;20029;-53
2023/01/18 09:56:03;;;;;;;71.25;10.85;;;;;;;-148.24;100.00;61531.34;4992364;28;20125;-54
2023/01/18 09:58:55;;;;;;;86.53;12.18;;;;;;;-148.24;100.00;61531.34;4993199;28;20033;-56
2023/01/18 10:01:25;;;;;;;89.70;11.77;;;;;;;-148.24;100.00;61531.34;4991973;28;20049;-53
2023/01/18 10:04:22;;;;;;;71.57;11.63;;;;;;;-148.24;100.00;61531.34;4992992;28;20038;-53
2023/01/18 10:07:14;;;;;;;84.85;11.00;;;;;;;-148.24;100.00;61531.34;4993345;28;20040;-54
2023/01/18 10:09:45;;;;;;;87.70;9.47;;;;;;;-148.24;100.00;61531.34;4993299;28;20022;-54
2023/01/18 10:12:22;;;;;;;85.55;11.73;;;;;;;-148.24;100.00;61531.34;4991522;28;20535;-53
2023/01/18 10:15:16;;;;;;;67.55;10.15;;;;;;;-148.24;100.00;61531.34;4993201;28;20535;-56
2023/01/18 10:17:43;;;;;;;85.25;11.13;;;;;;;-148.24;100.00;61531.34;4992816;28;20706;-54
2023/01/18 10:20:16;;;;;;;77.75;9.63;;;;;;;-148.24;100.00;61531.34;4991621;28;20321;-54
2023/01/18 10:22:49;;;;;;;70.55;8.95;;;;;;;-148.24;100.00;61531.34;4991696;28;20116;-54
2023/01/18 10:25:31;;;;;;;107.30;11.45;;;;;;;-148.24;100.00;61531.34;4990933;28;20041;-55
2023/01/18 10:28:27;;;;;;;91.43;13.63;;;;;;;-148.24;100.00;61531.34;4991400;28;20018;-55
2023/01/18 10:30:55;;;;;;;67.43;9.23;;;;;;;-148.24;100.00;61531.34;4992191;28;20116;-56
2023/01/18 10:33:24;;;;;;;75.13;10.95;;;;;;;-148.24;100.00;61531.34;4991356;28;20056;-54
2023/01/18 10:35:54;;;;;;;85.22;10.93;;;;;;;-148.24;100.00;61531.34;4993833;28;20109;-55
2023/01/18 10:38:23;;;;;;;72.85;11.68;;;;;;;-148.24;100.00;61531.34;4992487;28;20675;-56
2023/01/18 10:41:00;;;;;;;89.10;12.57;;;;;;;-148.24;100.00;61531.34;4990799;28;20890;-54
2023/01/18 10:43:28;;;;;;;66.78;9.23;;;;;;;-148.24;100.00;61531.34;4992307;28;20038;-54
2023/01/18 10:45:54;;;;;;;77.60;12.20;;;;;;;-148.24;100.00;61531.34;4992095;28;20038;-55
2023/01/18 10:48:19;;;;;;;72.85;10.35;;;;;;;-148.24;100.00;61531.34;4993668;28;20084;-54
2023/01/18 10:50:52;;;;;;;65.53;8.10;;;;;;;-148.24;100.00;61531.34;4989742;28;20692;-55
2023/01/18 10:53:24;;;;;;;;;;;;;;;-148.24;100.00;61531.34;4989677;28;20891;-55
2023/01/18 10:55:58;;;;;;;78.65;11.02;;;;;;;-148.24;100.00;61531.34;4991595;28;20358;-53
2023/01/18 10:58:29;;;;;;;70.47;11.85;;;;;;;-148.24;100.00;61531.34;4991490;28;20036;-55
2023/01/18 11:00:56;;;;;;;83.50;10.32;;;;;;;-148.24;100.00;61531.34;4992784;28;20401;-53
2023/01/18 11:03:22;;;;;;;73.05;11.10;;;;;;;-148.24;100.00;61531.34;4994267;28;20034;-52
2023/01/18 11:05:48;;;;;;;57.28;8.15;;;;;;;-148.24;100.00;61531.34;4993574;28;20042;-53
2023/01/18 11:08:24;;;;;;;72.88;10.45;;;;;;;-148.24;100.00;61531.34;4991494;28;20104;-56
2023/01/18 11:12:32;;;;;;;73.10;9.38;;;;;;;-148.24;100.00;61531.34;4992142;28;20092;-52
2023/01/18 11:14:33;;;;;;;92.30;10.90;;;;;;;-148.24;100.00;61531.34;4991404;28;20132;-52
2023/01/18 11:17:10;;;;;;;74.50;12.27;;;;;;;-148.24;100.00;61531.34;4990373;28;20042;-53
2023/01/18 11:19:38;;;;;;;73.32;10.18;;;;;;;-148.24;100.00;61531.34;4992716;28;20029;-54
2023/01/18 11:22:11;;;;;;;83.82;11.45;;;;;;;-148.24;100.00;61531.34;4989969;28;20613;-55
2023/01/18 11:24:37;;;;;;;82.32;11.85;;;;;;;-148.24;100.00;61531.34;4990926;28;20468;-54
2023/01/18 11:27:11;;;;;;;64.70;8.93;;;;;;;-148.24;100.00;61531.34;4989839;28;20049;-54
2023/01/18 11:29:41;;;;;;;87.43;14.07;;;;;;;-148.24;100.00;61531.34;4991196;28;20117;-53
2023/01/18 11:32:24;;;;;;;65.72;11.70;;;;;;;-148.24;100.00;61531.34;4991547;28;20042;-54
2023/01/18 11:34:52;;;;;;;63.10;8.07;;;;;;;-148.24;100.00;61531.34;4990057;28;20539;-57
2023/01/18 11:37:34;;;;;;;143.43;15.40;;;;;;;-148.24;100.00;61531.34;4990966;28;20069;-54
2023/01/18 11:40:18;;;;;;;73.03;13.37;;;;;;;-148.24;100.00;61531.34;4991787;28;20029;-55